Time;durP1;ratioP1;P1;durP2;ratioP2;P2;SDS_P1;SDS_P2;PMS_P1;PMS_P2;Temp;Humidity;BMP_temperature;BMP_pressure;BME280_temperature;BME280_humidity;BME280_pressure;Samples;Min_cycle;Max_cycle;Signal;HPM_P1;HPM_P2
2022/12/29 00:00:28;;;;;;;4.80;3.08;;;;;;;;;;5072913;28;20164;-80
2022/12/29 00:02:55;;;;;;;9.23;2.50;;;;;;;;;;5089861;28;20052;-79
2022/12/29 00:05:24;;;;;;;3.60;2.33;;;;;;;;;;5090843;28;20049;-79
2022/12/29 00:07:51;;;;;;;3.33;2.10;;;;;;;;;;5089044;28;20056;-79
2022/12/29 00:10:21;;;;;;;3.83;2.00;;;;;;;;;;5093360;28;20100;-80
2022/12/29 00:15:39;;;;;;;5.15;2.20;;;;;;;;;;5095205;28;20902;-81
2022/12/29 00:18:08;;;;;;;3.17;2.10;;;;;;;;;;5090365;28;20106;-80
2022/12/29 00:44:04;;;;;;;2.97;1.90;;;;;;;;;;5102261;28;20070;-77
2022/12/29 00:45:45;;;;;;;2.65;1.85;;;;;;;;;;5110079;28;20049;-80
2022/12/29 00:48:12;;;;;;;3.35;1.83;;;;;;;;;;5108080;28;20974;-79
2022/12/29 00:50:40;;;;;;;5.10;1.92;;;;;;;;;;5113265;28;20958;-80
2022/12/29 00:53:07;;;;;;;3.33;1.70;;;;;;;;;;5096207;28;20067;-80
2022/12/29 00:55:37;;;;;;;3.83;1.60;;;;;;;;;;5113391;28;20060;-80
2022/12/29 00:58:04;;;;;;;2.85;1.52;;;;;;;;;;5108744;28;20072;-80
2022/12/29 01:00:37;;;;;;;2.92;1.67;;;;;;;;;;5106254;28;20057;-80
2022/12/29 01:03:04;;;;;;;5.03;1.70;;;;;;;;;;5100829;28;20049;-81
2022/12/29 01:05:31;;;;;;;2.55;1.75;;;;;;;;;;5100477;28;20048;-80
2022/12/29 01:07:59;;;;;;;3.80;1.70;;;;;;;;;;5094666;28;20183;-80
2022/12/29 01:10:33;;;;;;;2.45;1.60;;;;;;;;;;5097847;28;20089;-81
2022/12/29 01:13:00;;;;;;;3.13;1.70;;;;;;;;;;5096799;28;20073;-80
2022/12/29 01:15:27;;;;;;;2.53;1.58;;;;;;;;;;5095090;28;20048;-80
2022/12/29 01:17:54;;;;;;;3.00;1.45;;;;;;;;;;5090737;28;20055;-81
2022/12/29 01:20:23;;;;;;;3.80;1.55;;;;;;;;;;5099957;28;20545;-81
2022/12/29 01:22:54;;;;;;;3.22;1.30;;;;;;;;;;5100196;28;20048;-81
2022/12/29 01:25:21;;;;;;;2.60;1.33;;;;;;;;;;5092201;28;20060;-82
2022/12/29 01:27:48;;;;;;;3.03;1.60;;;;;;;;;;5093817;28;20492;-81
2022/12/29 01:30:15;;;;;;;1.95;1.30;;;;;;;;;;5109919;28;20053;-82
2022/12/29 01:32:44;;;;;;;5.85;1.63;;;;;;;;;;5098470;28;20052;-81
2022/12/29 01:35:11;;;;;;;3.35;1.60;;;;;;;;;;5091049;28;20060;-81
2022/12/29 01:37:38;;;;;;;3.22;1.40;;;;;;;;;;5098333;28;20094;-81
2022/12/29 01:40:09;;;;;;;4.82;1.58;;;;;;;;;;5113415;28;20068;-81
2022/12/29 01:42:36;;;;;;;3.67;1.48;;;;;;;;;;5093882;28;20053;-81
2022/12/29 01:45:09;;;;;;;4.15;1.50;;;;;;;;;;5089928;28;20056;-81
2022/12/29 01:47:40;;;;;;;3.75;1.70;;;;;;;;;;5095358;28;20594;-81
2022/12/29 01:50:08;;;;;;;3.38;1.70;;;;;;;;;;5096319;28;20052;-81
2022/12/29 01:52:41;;;;;;;4.53;1.63;;;;;;;;;;5106961;28;20191;-81
2022/12/29 01:55:10;;;;;;;4.05;1.60;;;;;;;;;;5096347;28;20092;-81
2022/12/29 01:57:39;;;;;;;2.85;1.80;;;;;;;;;;5093785;28;20048;-81
2022/12/29 02:00:08;;;;;;;4.45;1.80;;;;;;;;;;5094628;28;20056;-81
2022/12/29 02:02:36;;;;;;;3.15;1.85;;;;;;;;;;5095855;28;20098;-81
2022/12/29 02:05:16;;;;;;;2.50;1.67;;;;;;;;;;5089933;28;20053;-82
2022/12/29 02:07:44;;;;;;;2.85;1.58;;;;;;;;;;5093175;28;20048;-81
2022/12/29 02:10:12;;;;;;;3.33;1.80;;;;;;;;;;5095819;28;20104;-81
2022/12/29 02:12:40;;;;;;;3.53;1.73;;;;;;;;;;5099919;28;20053;-81
2022/12/29 02:15:10;;;;;;;3.60;1.80;;;;;;;;;;5095851;28;20071;-81
2022/12/29 02:17:59;;;;;;;3.42;1.52;;;;;;;;;;5101304;28;20046;-81
2022/12/29 02:20:38;;;;;;;2.10;1.58;;;;;;;;;;5099103;28;20103;-81
2022/12/29 02:23:21;;;;;;;3.38;1.90;;;;;;;;;;5097615;28;20044;-81
2022/12/29 02:25:48;;;;;;;4.28;1.60;;;;;;;;;;5098960;28;20052;-81
2022/12/29 02:28:29;;;;;;;3.53;1.55;;;;;;;;;;5096298;28;20060;-79
2022/12/29 02:31:15;;;;;;;2.22;1.30;;;;;;;;;;5088291;28;21014;-79
2022/12/29 02:33:45;;;;;;;4.35;1.40;;;;;;;;;;5089640;28;20052;-79
2022/12/29 02:36:34;;;;;;;2.78;1.42;;;;;;;;;;5093531;28;20044;-80
2022/12/29 02:39:14;;;;;;;3.72;1.20;;;;;;;;;;5096782;28;20053;-79
2022/12/29 02:41:45;;;;;;;4.35;1.08;;;;;;;;;;5088917;28;20048;-80
2022/12/29 02:44:28;;;;;;;2.90;1.10;;;;;;;;;;5106258;28;20917;-80
2022/12/29 02:47:01;;;;;;;3.00;1.20;;;;;;;;;;5096172;28;20040;-80
2022/12/29 02:49:34;;;;;;;3.22;0.85;;;;;;;;;;5094395;28;20041;-80
2022/12/29 02:52:05;;;;;;;5.20;0.98;;;;;;;;;;5088156;28;20040;-81
2022/12/29 02:54:42;;;;;;;1.85;0.73;;;;;;;;;;5093141;28;20052;-81
2022/12/29 02:57:29;;;;;;;1.60;0.90;;;;;;;;;;5094961;28;20048;-80
2022/12/29 02:59:58;;;;;;;2.40;0.60;;;;;;;;;;5096773;28;20061;-80
2022/12/29 03:02:44;;;;;;;2.78;0.70;;;;;;;;;;5091591;28;20941;-80
2022/12/29 03:05:17;;;;;;;3.67;0.90;;;;;;;;;;5092808;28;20052;-80
2022/12/29 03:08:03;;;;;;;3.42;1.10;;;;;;;;;;5094475;28;20971;-80
2022/12/29 03:10:44;;;;;;;2.03;0.85;;;;;;;;;;5103322;28;20131;-80
2022/12/29 03:16:18;;;;;;;5.10;1.00;;;;;;;;;;5093260;28;20060;-80
2022/12/29 03:18:57;;;;;;;1.65;1.10;;;;;;;;;;5096113;28;20048;-80
2022/12/29 03:22:26;;;;;;;2.50;1.08;;;;;;;;;;5091347;28;20049;-80
2022/12/29 03:24:19;;;;;;;3.47;1.10;;;;;;;;;;5094461;27;20041;-80
2022/12/29 03:26:47;;;;;;;3.97;1.02;;;;;;;;;;5086686;28;20048;-80
2022/12/29 03:29:15;;;;;;;2.47;1.00;;;;;;;;;;5097723;28;20053;-80
2022/12/29 03:31:43;;;;;;;3.40;1.00;;;;;;;;;;5097376;28;20040;-80
2022/12/29 03:34:10;;;;;;;4.47;1.23;;;;;;;;;;5094118;28;20059;-80
2022/12/29 03:36:41;;;;;;;2.75;0.98;;;;;;;;;;5094824;28;20045;-80
2022/12/29 03:39:12;;;;;;;2.85;1.23;;;;;;;;;;5097751;28;20935;-80
2022/12/29 03:41:41;;;;;;;4.60;1.02;;;;;;;;;;5109255;28;20049;-80
2022/12/29 03:44:08;;;;;;;6.35;1.50;;;;;;;;;;5092522;28;20045;-80
2022/12/29 03:46:39;;;;;;;3.90;1.17;;;;;;;;;;5093902;28;20041;-80
2022/12/29 03:49:06;;;;;;;5.00;1.20;;;;;;;;;;5087774;28;20052;-80
2022/12/29 03:51:36;;;;;;;2.78;1.10;;;;;;;;;;5089955;28;20061;-80
2022/12/29 03:54:03;;;;;;;5.40;1.00;;;;;;;;;;5089727;28;20037;-80
2022/12/29 03:56:30;;;;;;;1.63;1.00;;;;;;;;;;5107390;28;20056;-81
2022/12/29 03:58:57;;;;;;;3.22;0.95;;;;;;;;;;5094609;28;20044;-80
2022/12/29 04:01:24;;;;;;;4.13;1.10;;;;;;;;;;5088828;28;20068;-80
2022/12/29 04:03:55;;;;;;;3.55;1.20;;;;;;;;;;5092462;28;20060;-80
2022/12/29 04:06:23;;;;;;;4.75;1.20;;;;;;;;;;5094735;28;20052;-80
2022/12/29 04:08:50;;;;;;;3.15;1.10;;;;;;;;;;5096294;28;20093;-80
2022/12/29 04:11:17;;;;;;;3.47;1.50;;;;;;;;;;5106475;28;20045;-80
2022/12/29 04:13:44;;;;;;;6.03;1.75;;;;;;;;;;5088159;28;20053;-80
2022/12/29 04:16:14;;;;;;;4.30;1.17;;;;;;;;;;5089344;28;20041;-80
2022/12/29 04:18:45;;;;;;;4.72;1.10;;;;;;;;;;5088584;28;20047;-80
2022/12/29 04:21:12;;;;;;;2.80;1.17;;;;;;;;;;5085673;28;20045;-80
2022/12/29 04:23:40;;;;;;;8.15;1.90;;;;;;;;;;5087769;28;20326;-80
2022/12/29 04:26:08;;;;;;;8.30;2.08;;;;;;;;;;5094320;28;20108;-79
2022/12/29 04:28:39;;;;;;;7.45;1.20;;;;;;;;;;5087150;28;20086;-80
2022/12/29 04:31:06;;;;;;;4.32;1.35;;;;;;;;;;5086856;28;20049;-79
2022/12/29 04:33:33;;;;;;;6.05;1.50;;;;;;;;;;5105111;28;20041;-81
2022/12/29 04:36:00;;;;;;;11.38;1.63;;;;;;;;;;5092090;28;20045;-79
2022/12/29 04:38:27;;;;;;;7.88;1.38;;;;;;;;;;5094149;28;20052;-80
2022/12/29 04:40:55;;;;;;;9.93;1.08;;;;;;;;;;5088712;28;20040;-80
2022/12/29 04:43:22;;;;;;;5.60;1.10;;;;;;;;;;5090076;28;20199;-79
2022/12/29 04:45:49;;;;;;;7.07;1.83;;;;;;;;;;5092304;28;20047;-80
2022/12/29 04:48:17;;;;;;;7.75;1.27;;;;;;;;;;5092010;28;20080;-79
2022/12/29 04:50:44;;;;;;;9.23;1.20;;;;;;;;;;5087003;28;20075;-79
2022/12/29 04:53:11;;;;;;;5.60;1.27;;;;;;;;;;5092751;28;20041;-80
2022/12/29 04:55:39;;;;;;;4.63;1.42;;;;;;;;;;5093567;28;20041;-80
2022/12/29 04:58:09;;;;;;;8.75;1.73;;;;;;;;;;5087934;28;20635;-79
2022/12/29 05:00:36;;;;;;;9.63;2.08;;;;;;;;;;5090228;28;20084;-79
2022/12/29 05:03:03;;;;;;;9.13;1.38;;;;;;;;;;5089258;28;20041;-79
2022/12/29 05:05:33;;;;;;;6.95;1.20;;;;;;;;;;5094258;28;20059;-80
2022/12/29 05:08:00;;;;;;;7.78;1.40;;;;;;;;;;5098227;28;20079;-80
2022/12/29 05:10:27;;;;;;;6.55;1.30;;;;;;;;;;5089890;28;20048;-80
2022/12/29 05:12:54;;;;;;;8.80;1.60;;;;;;;;;;5093465;28;20034;-79
2022/12/29 05:15:21;;;;;;;8.27;1.50;;;;;;;;;;5087400;28;20068;-79
2022/12/29 05:17:48;;;;;;;7.93;1.23;;;;;;;;;;5095903;28;20044;-80
2022/12/29 05:20:16;;;;;;;7.95;1.33;;;;;;;;;;5095786;28;20045;-79
2022/12/29 05:22:43;;;;;;;4.95;1.20;;;;;;;;;;5108585;28;20049;-80
2022/12/29 05:25:10;;;;;;;5.95;1.38;;;;;;;;;;5091060;28;20178;-79
2022/12/29 05:27:38;;;;;;;8.32;1.52;;;;;;;;;;5093783;28;20037;-79
2022/12/29 05:30:05;;;;;;;7.85;1.10;;;;;;;;;;5096623;28;20044;-80
2022/12/29 05:32:33;;;;;;;9.60;1.60;;;;;;;;;;5099079;28;20088;-80
2022/12/29 05:35:00;;;;;;;12.13;1.40;;;;;;;;;;5086748;28;20036;-79
2022/12/29 05:37:27;;;;;;;10.95;1.70;;;;;;;;;;5092657;28;20053;-79
2022/12/29 05:39:55;;;;;;;12.43;1.45;;;;;;;;;;5095488;28;20048;-79
2022/12/29 05:42:22;;;;;;;13.57;2.05;;;;;;;;;;5107369;28;20049;-80
2022/12/29 05:44:53;;;;;;;7.30;1.35;;;;;;;;;;5084347;28;20117;-78
2022/12/29 05:47:20;;;;;;;7.28;2.17;;;;;;;;;;5088594;28;20041;-79
2022/12/29 05:49:47;;;;;;;11.27;1.95;;;;;;;;;;5094618;28;20051;-80
2022/12/29 05:52:14;;;;;;;10.85;1.50;;;;;;;;;;5089131;28;20060;-79
2022/12/29 05:54:42;;;;;;;6.65;1.00;;;;;;;;;;5090054;28;20079;-79
2022/12/29 05:57:09;;;;;;;8.32;1.52;;;;;;;;;;5089149;28;20060;-79
2022/12/29 05:59:46;;;;;;;10.63;1.75;;;;;;;;;;5094909;28;20041;-80
2022/12/29 06:02:44;;;;;;;12.55;1.88;;;;;;;;;;5091075;28;20052;-79
2022/12/29 06:05:25;;;;;;;8.82;1.67;;;;;;;;;;5100409;28;20045;-79
2022/12/29 06:07:59;;;;;;;9.45;1.42;;;;;;;;;;5100556;28;20145;-79
2022/12/29 06:10:27;;;;;;;12.68;1.70;;;;;;;;;;5098523;28;20072;-79
2022/12/29 06:12:54;;;;;;;7.82;1.65;;;;;;;;;;5092468;28;20035;-80
2022/12/29 06:15:21;;;;;;;9.38;2.08;;;;;;;;;;5093256;28;20051;-79
2022/12/29 06:17:48;;;;;;;8.23;1.35;;;;;;;;;;5089709;28;20721;-79
2022/12/29 06:20:15;;;;;;;13.63;1.90;;;;;;;;;;5107282;28;20041;-79
2022/12/29 06:22:43;;;;;;;10.88;2.10;;;;;;;;;;5095941;28;20037;-79
2022/12/29 06:25:10;;;;;;;11.63;2.00;;;;;;;;;;5106065;28;20040;-79
2022/12/29 06:27:37;;;;;;;10.32;1.65;;;;;;;;;;5095847;28;20054;-79
2022/12/29 06:30:07;;;;;;;10.13;1.75;;;;;;;;;;5096932;28;20040;-79
2022/12/29 06:32:35;;;;;;;13.60;2.08;;;;;;;;;;5095875;28;20041;-79
2022/12/29 06:35:03;;;;;;;9.82;1.50;;;;;;;;;;5109625;27;20045;-78
2022/12/29 06:37:30;;;;;;;11.07;1.67;;;;;;;;;;5089884;28;21075;-79
2022/12/29 06:39:57;;;;;;;7.68;1.48;;;;;;;;;;5095061;28;20067;-79
2022/12/29 06:42:25;;;;;;;9.70;1.45;;;;;;;;;;5108823;28;20044;-78
2022/12/29 06:44:52;;;;;;;7.03;1.58;;;;;;;;;;5090082;28;20045;-79
2022/12/29 06:47:19;;;;;;;11.13;1.65;;;;;;;;;;5097903;28;20047;-79
2022/12/29 06:49:46;;;;;;;8.35;1.70;;;;;;;;;;5087502;28;20037;-79
2022/12/29 06:52:13;;;;;;;8.93;1.40;;;;;;;;;;5093958;28;20080;-79
2022/12/29 06:54:43;;;;;;;15.35;2.45;;;;;;;;;;5083511;28;20107;-78
2022/12/29 06:57:12;;;;;;;6.03;1.58;;;;;;;;;;5088459;28;20080;-78
2022/12/29 06:59:40;;;;;;;6.88;1.42;;;;;;;;;;5083026;28;20045;-79
2022/12/29 07:02:07;;;;;;;11.73;1.70;;;;;;;;;;5085280;28;20038;-78
2022/12/29 07:04:34;;;;;;;13.23;2.03;;;;;;;;;;5087858;28;20194;-80
2022/12/29 07:07:04;;;;;;;4.72;1.42;;;;;;;;;;5098296;27;20087;-79
2022/12/29 07:09:34;;;;;;;6.60;1.42;;;;;;;;;;5083995;28;20055;-80
2022/12/29 07:12:07;;;;;;;12.05;1.77;;;;;;;;;;5084329;28;20060;-79
2022/12/29 07:14:55;;;;;;;12.68;1.67;;;;;;;;;;5074790;28;20052;-79
2022/12/29 07:17:24;;;;;;;11.07;1.70;;;;;;;;;;5083479;28;20041;-80
2022/12/29 07:19:54;;;;;;;8.82;1.63;;;;;;;;;;5081945;28;20065;-79
2022/12/29 07:22:51;;;;;;;12.20;1.65;;;;;;;;;;5091243;28;20056;-80
2022/12/29 07:25:17;;;;;;;11.20;2.05;;;;;;;;;;5087102;28;20049;-79
2022/12/29 07:27:44;;;;;;;9.90;1.35;;;;;;;;;;5089727;28;20246;-80
2022/12/29 07:30:15;;;;;;;9.70;1.70;;;;;;;;;;5087611;28;20045;-79
2022/12/29 07:32:45;;;;;;;12.95;1.88;;;;;;;;;;5105446;27;20057;-79
2022/12/29 07:35:12;;;;;;;9.98;1.73;;;;;;;;;;5090931;28;20049;-79
2022/12/29 07:37:42;;;;;;;8.95;1.67;;;;;;;;;;5091761;28;20037;-79
2022/12/29 07:40:12;;;;;;;6.97;1.48;;;;;;;;;;5089833;28;20060;-80
2022/12/29 07:42:40;;;;;;;6.82;1.48;;;;;;;;;;5095830;28;20060;-80
2022/12/29 07:45:16;;;;;;;9.82;1.70;;;;;;;;;;5091005;28;20044;-78
2022/12/29 07:47:44;;;;;;;14.68;1.88;;;;;;;;;;5090677;28;20044;-79
2022/12/29 07:50:11;;;;;;;8.88;1.70;;;;;;;;;;5092998;28;20159;-80
2022/12/29 07:52:38;;;;;;;7.00;1.48;;;;;;;;;;5086580;28;20033;-79
2022/12/29 07:55:07;;;;;;;12.18;2.03;;;;;;;;;;5087256;28;20628;-80
2022/12/29 07:57:38;;;;;;;11.40;2.47;;;;;;;;;;5086646;28;20925;-80
2022/12/29 08:00:07;;;;;;;10.35;1.77;;;;;;;;;;5084881;28;20079;-79
2022/12/29 08:02:34;;;;;;;12.02;2.10;;;;;;;;;;5088026;28;20040;-79
2022/12/29 08:05:04;;;;;;;9.27;1.60;;;;;;;;;;5087082;28;20044;-79
2022/12/29 08:07:33;;;;;;;12.43;1.67;;;;;;;;;;5088905;28;20104;-79
2022/12/29 08:10:02;;;;;;;13.82;2.20;;;;;;;;;;5089034;28;20075;-79
2022/12/29 08:12:30;;;;;;;10.93;1.73;;;;;;;;;;5087389;28;20118;-79
2022/12/29 08:14:57;;;;;;;12.88;1.70;;;;;;;;;;5100981;27;20809;-79
2022/12/29 08:17:24;;;;;;;14.45;2.33;;;;;;;;;;5088801;28;20060;-79
2022/12/29 08:19:53;;;;;;;8.95;2.15;;;;;;;;;;5100193;28;20057;-79
2022/12/29 08:22:21;;;;;;;9.63;1.90;;;;;;;;;;5099643;27;20056;-79
2022/12/29 08:24:49;;;;;;;9.00;1.70;;;;;;;;;;5082777;28;20052;-79
2022/12/29 08:27:16;;;;;;;12.15;2.05;;;;;;;;;;5097891;28;20049;-79
2022/12/29 08:29:54;;;;;;;12.43;2.47;;;;;;;;;;5086218;28;20053;-80
2022/12/29 08:32:22;;;;;;;10.85;1.90;;;;;;;;;;5091001;28;20055;-79
2022/12/29 08:34:57;;;;;;;18.08;2.22;;;;;;;;;;5091541;28;20069;-80
2022/12/29 08:37:24;;;;;;;11.10;1.65;;;;;;;;;;5089671;28;20053;-80
2022/12/29 08:39:58;;;;;;;11.63;2.20;;;;;;;;;;5094203;28;20853;-79
2022/12/29 08:42:30;;;;;;;12.27;1.90;;;;;;;;;;5093809;28;20051;-79
2022/12/29 08:44:59;;;;;;;;;;;;;;;;;;5090087;28;20063;-79
2022/12/29 08:47:31;;;;;;;11.80;1.90;;;;;;;;;;5086823;28;41936;-79
2022/12/29 08:50:00;;;;;;;5.15;1.35;;;;;;;;;;5087863;28;20056;-80
2022/12/29 08:52:30;;;;;;;10.38;1.50;;;;;;;;;;5098197;28;20639;-80
2022/12/29 08:54:57;;;;;;;15.27;2.05;;;;;;;;;;5095044;28;20056;-79
2022/12/29 08:57:39;;;;;;;12.10;1.98;;;;;;;;;;5090650;28;20063;-80
2022/12/29 09:00:08;;;;;;;15.23;2.13;;;;;;;;;;5092686;28;20615;-80
2022/12/29 09:02:39;;;;;;;6.57;1.20;;;;;;;;;;5092547;28;20031;-79
2022/12/29 09:05:15;;;;;;;12.00;1.52;;;;;;;;;;5092689;28;20055;-79
2022/12/29 09:07:45;;;;;;;10.85;1.63;;;;;;;;;;5093563;28;20055;-79
2022/12/29 09:10:15;;;;;;;10.48;1.52;;;;;;;;;;5088895;28;20049;-79
2022/12/29 09:12:45;;;;;;;7.03;1.52;;;;;;;;;;5089679;28;20088;-80
2022/12/29 09:15:13;;;;;;;9.32;1.73;;;;;;;;;;5093269;28;20132;-80
2022/12/29 09:17:45;;;;;;;9.07;1.67;;;;;;;;;;5091505;28;20053;-80
2022/12/29 09:20:13;;;;;;;8.82;1.65;;;;;;;;;;5091595;28;20498;-79
2022/12/29 09:22:43;;;;;;;11.90;2.35;;;;;;;;;;5086885;28;20041;-79
2022/12/29 09:25:14;;;;;;;9.73;1.35;;;;;;;;;;5087846;28;20064;-80
2022/12/29 09:27:44;;;;;;;13.27;1.80;;;;;;;;;;5086822;28;20045;-80
2022/12/29 09:30:14;;;;;;;9.55;1.60;;;;;;;;;;5086176;28;20076;-79
2022/12/29 09:32:42;;;;;;;9.40;1.83;;;;;;;;;;5091944;28;20787;-80
2022/12/29 09:35:12;;;;;;;12.07;1.60;;;;;;;;;;5088051;28;20049;-80
2022/12/29 09:37:39;;;;;;;7.72;1.42;;;;;;;;;;5094013;28;20094;-79
2022/12/29 09:40:08;;;;;;;9.95;1.58;;;;;;;;;;5093107;28;20053;-80
2022/12/29 09:42:44;;;;;;;7.35;1.58;;;;;;;;;;5094995;28;20045;-80
2022/12/29 09:45:17;;;;;;;6.25;1.15;;;;;;;;;;5096408;28;20126;-79
2022/12/29 09:47:45;;;;;;;10.55;2.08;;;;;;;;;;5097634;28;20072;-80
2022/12/29 09:50:28;;;;;;;8.00;1.45;;;;;;;;;;5090247;28;20041;-80
2022/12/29 09:52:59;;;;;;;11.20;1.30;;;;;;;;;;5094943;28;20148;-79
2022/12/29 09:55:31;;;;;;;10.50;1.90;;;;;;;;;;5096301;28;20048;-79
2022/12/29 09:58:01;;;;;;;11.83;1.50;;;;;;;;;;5091177;28;20060;-79
2022/12/29 10:00:37;;;;;;;9.48;2.17;;;;;;;;;;5096403;28;20079;-79
2022/12/29 10:03:16;;;;;;;11.23;1.65;;;;;;;;;;5087544;28;20049;-79
2022/12/29 10:05:48;;;;;;;14.85;2.00;;;;;;;;;;5104926;28;20067;-79
2022/12/29 10:08:25;;;;;;;6.70;1.60;;;;;;;;;;5094163;28;20056;-79
2022/12/29 10:10:57;;;;;;;10.10;2.05;;;;;;;;;;5094031;28;20049;-79
2022/12/29 10:13:31;;;;;;;14.50;1.98;;;;;;;;;;5092499;28;20037;-79
2022/12/29 10:16:22;;;;;;;7.25;1.10;;;;;;;;;;5090740;28;20886;-79
2022/12/29 10:19:08;;;;;;;6.95;1.60;;;;;;;;;;5038597;28;20049;-79
2022/12/29 10:21:38;;;;;;;9.35;1.58;;;;;;;;;;5032636;28;20042;-79
2022/12/29 10:24:13;;;;;;;6.22;1.45;;;;;;;;;;5033571;28;20117;-79
2022/12/29 10:26:42;;;;;;;7.20;1.80;;;;;;;;;;5033291;28;20058;-80
2022/12/29 10:29:18;;;;;;;7.55;1.90;;;;;;;;;;5033646;28;20082;-78
2022/12/29 10:31:48;;;;;;;6.20;1.58;;;;;;;;;;5033320;28;20050;-79
2022/12/29 10:34:29;;;;;;;;;;;;;;;;;;5034706;28;20807;-79
2022/12/29 10:37:00;;;;;;;11.07;1.52;;;;;;;;;;5032993;28;42772;-79
2022/12/29 10:39:40;;;;;;;9.00;1.58;;;;;;;;;;5029078;28;20100;-79
2022/12/29 10:42:14;;;;;;;12.57;2.10;;;;;;;;;;5033054;28;20042;-80
2022/12/29 10:44:55;;;;;;;10.88;2.58;;;;;;;;;;5032351;28;20034;-80
2022/12/29 10:47:26;;;;;;;8.95;2.50;;;;;;;;;;5030281;28;20081;-79
2022/12/29 10:50:08;;;;;;;13.00;1.98;;;;;;;;;;5021703;28;20064;-80
2022/12/29 10:52:38;;;;;;;8.48;1.70;;;;;;;;;;5033187;28;20264;-80
2022/12/29 10:55:12;;;;;;;10.85;2.13;;;;;;;;;;5038085;28;20049;-79
2022/12/29 10:57:45;;;;;;;7.70;2.00;;;;;;;;;;5090589;28;20044;-80
2022/12/29 11:00:26;;;;;;;13.77;2.20;;;;;;;;;;5099677;28;20341;-79
2022/12/29 11:03:10;;;;;;;8.57;2.15;;;;;;;;;;5093097;28;20522;-79
2022/12/29 11:05:57;;;;;;;13.98;2.83;;;;;;;;;;5093849;28;20052;-79
2022/12/29 11:08:26;;;;;;;13.68;2.83;;;;;;;;;;5093169;28;20892;-79
2022/12/29 11:10:58;;;;;;;11.88;2.40;;;;;;;;;;5093386;28;20144;-79
2022/12/29 11:13:48;;;;;;;13.15;2.42;;;;;;;;;;5093398;28;20052;-79
2022/12/29 11:16:27;;;;;;;9.27;2.17;;;;;;;;;;5090440;28;20092;-80
2022/12/29 11:18:54;;;;;;;11.70;2.10;;;;;;;;;;5088193;28;20057;-80
2022/12/29 11:21:40;;;;;;;13.73;2.67;;;;;;;;;;5101125;27;20045;-79
2022/12/29 11:24:20;;;;;;;16.08;3.03;;;;;;;;;;5090567;28;20180;-81
2022/12/29 11:27:09;;;;;;;15.43;2.90;;;;;;;;;;5089570;28;20040;-81
2022/12/29 11:29:43;;;;;;;13.48;2.80;;;;;;;;;;5088559;28;20824;-79
2022/12/29 11:32:40;;;;;;;12.85;2.50;;;;;;;;;;5085877;28;20131;-79
2022/12/29 11:35:31;;;;;;;14.68;2.47;;;;;;;;;;5084924;28;21698;-78
2022/12/29 11:38:01;;;;;;;14.27;2.85;;;;;;;;;;5097143;27;20041;-79
2022/12/29 11:40:30;;;;;;;15.23;2.47;;;;;;;;;;5084567;28;20080;-79
2022/12/29 11:43:02;;;;;;;11.95;2.10;;;;;;;;;;5087814;28;20071;-79
2022/12/29 11:45:32;;;;;;;16.50;2.63;;;;;;;;;;5098049;27;20403;-79
2022/12/29 11:48:02;;;;;;;10.38;2.30;;;;;;;;;;5086421;28;20052;-79
2022/12/29 11:50:31;;;;;;;16.50;2.90;;;;;;;;;;5082523;28;20555;-79
2022/12/29 11:53:03;;;;;;;15.05;2.40;;;;;;;;;;5083002;28;20157;-79
2022/12/29 11:55:31;;;;;;;9.33;2.63;;;;;;;;;;5082792;28;20579;-79
2022/12/29 11:58:01;;;;;;;12.00;2.10;;;;;;;;;;5087911;27;20131;-78
2022/12/29 12:00:29;;;;;;;10.07;1.98;;;;;;;;;;5078207;28;20135;-78
2022/12/29 12:03:04;;;;;;;10.55;1.88;;;;;;;;;;5082385;28;20055;-80
2022/12/29 12:05:44;;;;;;;12.25;2.00;;;;;;;;;;5083039;28;20128;-78
2022/12/29 12:08:20;;;;;;;11.70;2.22;;;;;;;;;;5086908;28;20095;-78
2022/12/29 12:10:47;;;;;;;18.25;2.88;;;;;;;;;;5089538;28;20084;-79
2022/12/29 12:13:21;;;;;;;11.20;2.45;;;;;;;;;;5091025;28;20041;-78
2022/12/29 12:15:48;;;;;;;;;;;;;;;;;;5087224;28;20097;-78
2022/12/29 12:18:32;;;;;;;17.10;3.53;;;;;;;;;;5082289;28;42927;-78
2022/12/29 12:21:06;;;;;;;14.60;2.45;;;;;;;;;;5092473;28;20083;-77
2022/12/29 12:23:50;;;;;;;18.45;2.58;;;;;;;;;;5102713;28;20747;-78
2022/12/29 12:26:36;;;;;;;15.52;2.33;;;;;;;;;;5093395;28;20839;-78
2022/12/29 12:29:13;;;;;;;20.13;2.42;;;;;;;;;;5087441;28;20052;-78
2022/12/29 12:31:45;;;;;;;18.27;3.33;;;;;;;;;;5087468;28;20109;-78
2022/12/29 12:34:16;;;;;;;10.38;2.78;;;;;;;;;;5088744;28;20049;-78
2022/12/29 12:37:01;;;;;;;16.30;2.33;;;;;;;;;;5091044;28;20068;-78
2022/12/29 12:39:47;;;;;;;12.52;1.95;;;;;;;;;;5090738;28;20140;-78
2022/12/29 12:42:32;;;;;;;14.25;2.40;;;;;;;;;;5099701;27;20048;-77
2022/12/29 12:45:10;;;;;;;13.98;2.30;;;;;;;;;;5087693;28;20063;-78
2022/12/29 12:47:37;;;;;;;16.58;2.83;;;;;;;;;;5084556;28;20055;-78
2022/12/29 12:50:19;;;;;;;15.00;2.55;;;;;;;;;;5089914;28;20056;-78
2022/12/29 12:52:46;;;;;;;9.85;2.10;;;;;;;;;;5089319;28;20055;-78
2022/12/29 12:55:35;;;;;;;12.50;2.58;;;;;;;;;;5083240;28;20146;-79
2022/12/29 12:58:18;;;;;;;10.85;2.28;;;;;;;;;;5074808;28;20140;-79
2022/12/29 13:00:54;;;;;;;16.67;2.78;;;;;;;;;;5086999;28;20032;-79
2022/12/29 13:03:27;;;;;;;19.20;2.72;;;;;;;;;;5084003;28;20107;-79
2022/12/29 13:05:54;;;;;;;;;;;;;;;;;;5099977;27;20053;-79
2022/12/29 13:08:46;;;;;;;13.63;2.92;;;;;;;;;;5086867;28;44774;-78
2022/12/29 13:11:22;;;;;;;13.25;2.22;;;;;;;;;;5086145;28;20716;-79
2022/12/29 13:13:58;;;;;;;16.90;2.85;;;;;;;;;;5081167;28;20049;-79
2022/12/29 13:16:41;;;;;;;12.43;2.53;;;;;;;;;;5080809;28;20049;-79
2022/12/29 13:19:15;;;;;;;17.55;3.53;;;;;;;;;;5079749;28;20049;-80
2022/12/29 13:21:45;;;;;;;13.95;3.22;;;;;;;;;;5089029;28;20052;-79
2022/12/29 13:24:43;;;;;;;10.60;2.67;;;;;;;;;;5085037;28;20098;-79
2022/12/29 13:27:10;;;;;;;18.08;3.38;;;;;;;;;;5087000;28;20139;-79
2022/12/29 13:29:47;;;;;;;19.27;3.28;;;;;;;;;;5082170;28;20060;-80
2022/12/29 13:32:23;;;;;;;16.05;3.13;;;;;;;;;;5083899;28;20817;-80
2022/12/29 13:35:09;;;;;;;10.70;2.42;;;;;;;;;;5091011;28;20758;-79
2022/12/29 13:37:45;;;;;;;29.08;4.97;;;;;;;;;;5087834;28;20136;-80
2022/12/29 13:40:17;;;;;;;19.48;3.15;;;;;;;;;;5104984;28;20184;-80
2022/12/29 13:42:45;;;;;;;11.88;3.05;;;;;;;;;;5085673;28;20048;-80
2022/12/29 13:45:15;;;;;;;19.50;3.28;;;;;;;;;;5083684;28;20045;-80
2022/12/29 13:47:51;;;;;;;16.50;3.55;;;;;;;;;;5082395;28;20059;-81
2022/12/29 13:50:20;;;;;;;14.55;2.92;;;;;;;;;;5082453;28;20076;-80
2022/12/29 13:53:06;;;;;;;13.63;2.80;;;;;;;;;;5087441;28;20790;-80
2022/12/29 13:55:45;;;;;;;15.63;2.83;;;;;;;;;;5083855;28;20045;-80
2022/12/29 13:58:35;;;;;;;22.20;3.08;;;;;;;;;;5082657;28;20055;-80
2022/12/29 14:01:15;;;;;;;12.93;2.45;;;;;;;;;;5081110;28;20052;-79
2022/12/29 14:03:45;;;;;;;14.98;2.65;;;;;;;;;;5093154;28;20049;-80
2022/12/29 14:06:13;;;;;;;8.55;2.08;;;;;;;;;;5098559;28;20057;-80
2022/12/29 14:08:40;;;;;;;13.63;2.53;;;;;;;;;;5085681;28;20052;-79
2022/12/29 14:11:11;;;;;;;11.25;2.33;;;;;;;;;;5084231;28;20066;-80
2022/12/29 14:13:40;;;;;;;13.63;2.42;;;;;;;;;;5075684;28;20039;-80
2022/12/29 14:16:08;;;;;;;9.50;1.80;;;;;;;;;;5097850;28;20892;-79
2022/12/29 14:18:42;;;;;;;11.68;1.85;;;;;;;;;;5087425;28;20064;-80
2022/12/29 14:21:09;;;;;;;;;;;;;;;;;;5088817;28;20556;-80
2022/12/29 14:23:37;;;;;;;8.80;2.05;;;;;;;;;;5076778;28;47579;-81
2022/12/29 14:26:04;;;;;;;7.53;1.50;;;;;;;;;;5087511;28;20099;-80
2022/12/29 14:28:32;;;;;;;3.30;0.98;;;;;;;;;;5086858;28;20050;-80
2022/12/29 14:31:00;;;;;;;7.93;1.27;;;;;;;;;;5088298;28;20057;-80
2022/12/29 14:33:32;;;;;;;9.25;1.38;;;;;;;;;;5088506;28;20098;-80
2022/12/29 14:36:19;;;;;;;8.18;1.20;;;;;;;;;;5089903;28;20064;-80
2022/12/29 14:38:47;;;;;;;7.43;1.80;;;;;;;;;;5083425;28;20178;-79
2022/12/29 14:41:16;;;;;;;5.88;1.10;;;;;;;;;;5083623;28;20059;-79
2022/12/29 14:43:57;;;;;;;6.13;1.25;;;;;;;;;;5093948;28;20048;-79
2022/12/29 14:46:25;;;;;;;3.92;1.20;;;;;;;;;;5092924;28;20095;-80
2022/12/29 14:48:57;;;;;;;5.22;1.23;;;;;;;;;;5086325;28;20044;-79
2022/12/29 14:51:36;;;;;;;8.27;1.63;;;;;;;;;;5046547;27;20101;-80
2022/12/29 14:54:23;;;;;;;8.48;1.17;;;;;;;;;;5040896;28;20078;-79
2022/12/29 14:56:50;;;;;;;15.93;1.60;;;;;;;;;;5045110;28;20089;-79
2022/12/29 14:59:20;;;;;;;10.93;1.50;;;;;;;;;;5038388;28;20705;-80
2022/12/29 15:01:50;;;;;;;11.07;1.90;;;;;;;;;;5042435;28;20049;-79
2022/12/29 15:04:19;;;;;;;9.13;1.35;;;;;;;;;;5049204;28;20049;-80
2022/12/29 15:06:47;;;;;;;9.30;2.33;;;;;;;;;;5041854;28;20056;-80
2022/12/29 15:09:30;;;;;;;10.02;2.00;;;;;;;;;;5046605;28;20054;-80
2022/12/29 15:12:07;;;;;;;11.00;2.10;;;;;;;;;;5051377;28;20484;-80
2022/12/29 15:14:49;;;;;;;9.57;2.53;;;;;;;;;;5042515;28;20057;-80
2022/12/29 15:17:27;;;;;;;11.48;2.10;;;;;;;;;;5039925;28;20054;-79
2022/12/29 15:19:55;;;;;;;9.20;2.05;;;;;;;;;;5046862;28;20149;-79
2022/12/29 15:22:22;;;;;;;13.35;2.75;;;;;;;;;;5047349;28;20105;-80
2022/12/29 15:24:54;;;;;;;14.40;2.35;;;;;;;;;;5039722;28;20124;-80
2022/12/29 15:27:25;;;;;;;15.95;2.05;;;;;;;;;;5046308;28;20044;-79
2022/12/29 15:30:03;;;;;;;8.80;2.25;;;;;;;;;;5038151;28;20042;-79
2022/12/29 15:32:39;;;;;;;11.95;2.60;;;;;;;;;;5042164;28;20049;-79
2022/12/29 15:35:22;;;;;;;9.15;2.30;;;;;;;;;;5033075;28;20839;-80